Time;durP1;ratioP1;P1;durP2;ratioP2;P2;SDS_P1;SDS_P2;PMS_P1;PMS_P2;Temp;Humidity;BMP_temperature;BMP_pressure;BME280_temperature;BME280_humidity;BME280_pressure;Samples;Min_cycle;Max_cycle;Signal;HPM_P1;HPM_P2
2023/03/05 00:00:26;;;;;;;24.60;5.60;;;;;;;-38.94;76.79;93813.38;4207366;28;20702;-66
2023/03/05 00:02:52;;;;;;;23.70;6.20;;;;;;;-38.89;76.33;93817.41;4197442;28;20247;-67
2023/03/05 00:05:19;;;;;;;26.30;6.10;;;;;;;-38.97;76.23;93813.44;4209851;28;20239;-65
2023/03/05 00:07:47;;;;;;;33.23;8.20;;;;;;;-39.01;77.40;93813.50;4207866;28;20664;-67
2023/03/05 00:10:14;;;;;;;32.80;9.30;;;;;;;-39.08;77.64;93810.31;4203505;28;20233;-66
2023/03/05 00:12:41;;;;;;;38.77;11.37;;;;;;;-39.01;78.66;93806.16;4194441;28;21308;-66
2023/03/05 00:15:08;;;;;;;30.70;9.40;;;;;;;-39.00;78.93;93800.41;4209037;28;23358;-66
2023/03/05 00:17:35;;;;;;;31.70;9.00;;;;;;;-39.01;78.69;93804.50;4209213;28;20729;-67
2023/03/05 00:20:01;;;;;;;31.40;7.73;;;;;;;-39.13;79.46;93797.31;4219922;28;22549;-65
2023/03/05 00:22:28;;;;;;;23.50;6.87;;;;;;;-39.14;79.83;93803.03;4211836;28;20247;-68
2023/03/05 00:24:54;;;;;;;20.70;7.20;;;;;;;-39.07;79.88;93799.66;4207177;28;20286;-69
2023/03/05 00:27:21;;;;;;;34.47;8.90;;;;;;;-39.14;79.70;93788.31;4202489;28;20249;-68
2023/03/05 00:29:48;;;;;;;28.27;8.47;;;;;;;-39.12;79.14;93791.56;4209036;28;20409;-68
2023/03/05 00:32:17;;;;;;;29.87;9.20;;;;;;;-39.13;78.71;93792.41;4191008;28;21828;-66
2023/03/05 00:34:43;;;;;;;37.97;9.90;;;;;;;-39.16;78.24;93788.38;4194810;28;21674;-67
2023/03/05 00:37:10;;;;;;;31.13;8.67;;;;;;;-39.14;78.06;93785.88;4210721;28;20901;-67
2023/03/05 00:39:36;;;;;;;34.67;9.00;;;;;;;-39.14;77.63;93779.34;4207662;28;20294;-66
2023/03/05 00:42:03;;;;;;;28.60;8.70;;;;;;;-39.16;78.07;93780.19;4207136;28;20255;-67
2023/03/05 00:44:29;;;;;;;30.60;9.60;;;;;;;-39.22;77.78;93782.72;4203268;28;24025;-66
2023/03/05 00:46:56;;;;;;;26.77;8.57;;;;;;;-39.11;77.91;93773.59;4201535;28;21422;-65
2023/03/05 00:49:22;;;;;;;23.23;7.50;;;;;;;-39.16;78.02;93773.69;4204825;28;20236;-67
2023/03/05 00:51:49;;;;;;;30.20;7.97;;;;;;;-39.14;77.78;93763.84;4187415;28;20295;-65
2023/03/05 00:54:16;;;;;;;30.97;8.57;;;;;;;-39.15;78.11;93770.38;4205635;28;20236;-65
2023/03/05 00:56:42;;;;;;;32.50;8.87;;;;;;;-39.03;77.96;93762.06;4194954;28;20515;-66
2023/03/05 00:59:09;;;;;;;25.03;8.53;;;;;;;-39.05;77.73;93767.81;4211078;28;21884;-66
2023/03/05 01:01:35;;;;;;;26.73;7.70;;;;;;;-39.00;78.12;93761.22;4202482;28;20481;-65
2023/03/05 01:04:02;;;;;;;22.87;7.53;;;;;;;-39.04;77.77;93762.91;4207839;28;20303;-68
2023/03/05 01:06:28;;;;;;;23.47;7.77;;;;;;;-39.00;78.26;93751.44;4208616;28;20489;-65
2023/03/05 01:08:55;;;;;;;24.90;7.10;;;;;;;-39.01;78.52;93747.38;4203635;28;20239;-67
2023/03/05 01:11:22;;;;;;;27.57;7.67;;;;;;;-39.05;78.79;93749.03;4206760;28;20275;-66
2023/03/05 01:13:48;;;;;;;26.13;7.43;;;;;;;-39.02;78.56;93748.19;4202678;28;20240;-66
2023/03/05 01:16:15;;;;;;;27.97;6.77;;;;;;;-39.05;79.07;93749.03;4200870;28;20242;-64
2023/03/05 01:18:41;;;;;;;22.33;6.97;;;;;;;-39.04;79.97;93745.78;4202720;28;20248;-67
2023/03/05 01:21:08;;;;;;;27.73;7.10;;;;;;;-39.11;80.52;93741.75;4209883;28;20251;-68
2023/03/05 01:23:36;;;;;;;27.43;7.00;;;;;;;-39.12;80.65;93731.16;4205694;28;20248;-66
2023/03/05 01:26:03;;;;;;;21.07;6.40;;;;;;;-39.05;80.75;93741.69;4199340;28;22085;-56
2023/03/05 01:28:30;;;;;;;27.30;7.67;;;;;;;-38.99;81.02;93731.81;4203130;28;21494;-66
2023/03/05 01:30:56;;;;;;;31.57;7.97;;;;;;;-39.09;81.12;93731.97;4193527;28;20382;-66
2023/03/05 01:33:23;;;;;;;26.87;7.33;;;;;;;-39.13;81.63;93732.00;4187975;28;20427;-66
2023/03/05 01:35:50;;;;;;;31.50;7.40;;;;;;;-39.17;81.97;93727.97;4173509;28;22073;-69
2023/03/05 01:38:17;;;;;;;26.50;7.30;;;;;;;-39.13;82.17;93723.88;4198661;28;20457;-67
2023/03/05 01:40:44;;;;;;;23.57;7.83;;;;;;;-39.13;82.49;93739.34;4191080;28;20337;-66
2023/03/05 01:43:10;;;;;;;26.07;7.30;;;;;;;-39.21;82.84;93731.28;4191563;28;20247;-67
2023/03/05 01:45:38;;;;;;;27.20;7.67;;;;;;;-39.26;83.40;93723.19;4195267;28;20243;-66
2023/03/05 01:48:04;;;;;;;23.50;8.27;;;;;;;-39.22;83.80;93723.97;4190288;28;20730;-66
2023/03/05 01:50:31;;;;;;;28.90;8.97;;;;;;;-39.18;83.25;93713.31;4192665;28;20236;-66
2023/03/05 01:53:01;;;;;;;30.37;7.90;;;;;;;-39.20;83.39;93717.44;4193657;28;20320;-65
2023/03/05 01:55:29;;;;;;;26.33;8.40;;;;;;;-39.20;83.45;93712.53;4207607;28;20308;-65
2023/03/05 01:58:02;;;;;;;26.73;8.43;;;;;;;-39.22;83.30;93711.75;4168787;28;20251;-65
2023/03/05 02:00:34;;;;;;;28.07;7.63;;;;;;;-39.29;84.19;93705.31;4175095;28;20406;-65
2023/03/05 02:03:04;;;;;;;26.17;7.40;;;;;;;-39.29;84.14;93705.31;4192646;28;21369;-65
2023/03/05 02:05:32;;;;;;;23.70;7.67;;;;;;;-39.30;84.44;93704.47;4182938;28;22313;-68
2023/03/05 02:08:01;;;;;;;25.30;7.57;;;;;;;-39.30;84.77;93703.69;4191180;28;20239;-66
2023/03/05 02:10:31;;;;;;;25.87;8.23;;;;;;;-39.34;84.97;93711.06;4195704;28;20282;-67
2023/03/05 02:13:01;;;;;;;30.67;7.43;;;;;;;-39.38;85.51;93703.81;4187139;28;20302;-65
2023/03/05 02:15:29;;;;;;;25.90;7.77;;;;;;;-39.31;85.66;93702.88;4179896;28;20290;-64
2023/03/05 02:17:55;;;;;;;19.30;6.53;;;;;;;-39.31;85.58;93706.97;4196144;28;20307;-65
2023/03/05 02:20:28;;;;;;;19.97;7.13;;;;;;;-39.38;86.29;93707.06;4201961;28;20421;-67
2023/03/05 02:22:54;;;;;;;27.27;7.93;;;;;;;-39.37;86.66;93698.91;4190334;28;23661;-65
2023/03/05 02:25:27;;;;;;;25.00;7.10;;;;;;;-39.38;86.71;93699.72;4195951;28;20298;-67
2023/03/05 02:28:27;;;;;;;21.67;7.57;;;;;;;-39.34;86.60;93698.03;4189751;28;20245;-64
2023/03/05 02:30:54;;;;;;;24.23;7.10;;;;;;;-39.36;86.58;93695.63;4188396;28;20250;-64
2023/03/05 02:33:21;;;;;;;22.37;7.00;;;;;;;-39.39;86.40;93692.41;4199484;28;22696;-68
2023/03/05 02:35:48;;;;;;;23.10;6.90;;;;;;;-39.37;87.13;93681.78;4191525;28;20339;-69
2023/03/05 02:38:17;;;;;;;28.93;7.20;;;;;;;-39.35;87.00;93681.75;4185639;28;21747;-64
2023/03/05 02:40:44;;;;;;;20.17;6.40;;;;;;;-39.39;86.91;93683.44;4181756;28;20332;-67
2023/03/05 02:43:11;;;;;;;26.77;7.00;;;;;;;-39.47;86.95;93682.72;4189643;28;20240;-66
2023/03/05 02:45:38;;;;;;;22.07;6.53;;;;;;;-39.41;87.79;93676.94;4189852;28;20353;-68
2023/03/05 02:48:05;;;;;;;19.07;7.00;;;;;;;-39.47;87.62;93669.69;4194060;28;20393;-64
2023/03/05 02:50:32;;;;;;;25.23;7.50;;;;;;;-39.45;87.72;93677.81;4192992;28;20243;-67
2023/03/05 02:52:58;;;;;;;22.47;7.00;;;;;;;-39.42;88.02;93675.31;4183080;28;22952;-67
2023/03/05 02:55:25;;;;;;;23.60;7.43;;;;;;;-39.46;87.67;93666.38;4187102;28;22941;-65
2023/03/05 02:57:51;;;;;;;22.33;7.00;;;;;;;-39.49;88.11;93664.00;4207210;28;20312;-67
2023/03/05 03:00:18;;;;;;;20.33;6.97;;;;;;;-39.50;88.22;93672.16;4193891;28;20245;-67
2023/03/05 03:02:44;;;;;;;22.17;6.80;;;;;;;-39.47;88.10;93672.94;4195724;28;20763;-67
2023/03/05 03:05:11;;;;;;;21.77;7.50;;;;;;;-39.54;88.74;93666.50;4192631;28;20240;-67
2023/03/05 03:07:37;;;;;;;21.47;7.10;;;;;;;-39.52;88.82;93669.75;4191075;28;20689;-65
2023/03/05 03:10:05;;;;;;;23.90;6.53;;;;;;;-39.43;88.72;93671.25;4192511;28;20390;-66
2023/03/05 03:12:36;;;;;;;31.07;6.80;;;;;;;-39.47;88.54;93668.03;4192023;28;20414;-67
2023/03/05 03:15:03;;;;;;;27.20;6.60;;;;;;;-39.46;88.32;93667.22;4199555;28;21957;-66
2023/03/05 03:17:29;;;;;;;18.63;6.47;;;;;;;-39.41;88.00;93667.16;4197164;28;20737;-66
2023/03/05 03:19:56;;;;;;;26.33;7.87;;;;;;;-39.47;88.11;93669.69;4184556;28;20274;-67
2023/03/05 03:22:22;;;;;;;19.97;6.60;;;;;;;-39.49;87.41;93672.13;4206444;28;22459;-66
2023/03/05 03:24:49;;;;;;;19.97;6.50;;;;;;;-39.37;87.29;93669.53;4202153;28;23395;-68
2023/03/05 03:27:15;;;;;;;19.90;5.73;;;;;;;-39.43;87.14;93673.72;4201299;28;20306;-66
2023/03/05 03:29:42;;;;;;;21.10;6.00;;;;;;;-39.47;87.64;93660.69;4209755;28;20244;-70
2023/03/05 03:32:08;;;;;;;22.33;6.67;;;;;;;-39.40;87.19;93659.78;4203958;28;20241;-68
2023/03/05 03:34:35;;;;;;;20.70;6.17;;;;;;;-39.38;87.16;93658.13;4199333;28;25568;-68
2023/03/05 03:37:01;;;;;;;23.43;7.43;;;;;;;-39.36;86.55;93655.66;4216149;28;20287;-68
2023/03/05 03:39:28;;;;;;;22.50;6.13;;;;;;;-39.33;87.35;93651.50;4206389;28;21142;-67
2023/03/05 03:41:55;;;;;;;24.77;6.87;;;;;;;-39.41;87.33;93648.38;4205599;28;20280;-66
2023/03/05 03:44:22;;;;;;;22.43;6.33;;;;;;;-39.42;87.64;93648.41;4214066;28;20299;-66
2023/03/05 03:46:49;;;;;;;19.77;6.23;;;;;;;-39.41;87.42;93647.59;4213289;28;20227;-66
2023/03/05 03:49:21;;;;;;;25.10;6.47;;;;;;;-39.36;87.02;93640.97;4204086;28;21267;-67
2023/03/05 03:51:50;;;;;;;23.83;6.20;;;;;;;-39.38;87.13;93642.63;4208422;28;20351;-66
2023/03/05 03:54:17;;;;;;;20.77;6.37;;;;;;;-39.43;87.03;93635.38;4212844;28;20357;-66
2023/03/05 03:56:44;;;;;;;22.90;6.33;;;;;;;-39.45;86.19;93641.91;4216041;28;20243;-66
2023/03/05 03:59:11;;;;;;;22.40;5.37;;;;;;;-39.39;86.72;93636.94;4200302;28;20437;-67
2023/03/05 04:01:38;;;;;;;20.67;6.03;;;;;;;-39.35;86.56;93630.34;4207626;28;20229;-68
2023/03/05 04:04:05;;;;;;;19.90;5.77;;;;;;;-39.35;86.10;93638.50;4196154;28;20224;-65
2023/03/05 04:06:32;;;;;;;20.47;6.40;;;;;;;-39.39;86.39;93636.09;4190829;28;20239;-67
2023/03/05 04:08:58;;;;;;;23.57;7.10;;;;;;;-39.38;85.92;93633.66;4200376;28;20719;-64
2023/03/05 04:11:25;;;;;;;19.57;6.27;;;;;;;-39.35;86.25;93628.72;4212158;28;20228;-68
2023/03/05 04:13:51;;;;;;;20.47;6.37;;;;;;;-39.42;86.10;93629.63;4200110;28;20251;-69
2023/03/05 04:16:18;;;;;;;19.37;5.97;;;;;;;-39.42;85.99;93627.19;4211754;28;21828;-68
2023/03/05 04:18:45;;;;;;;18.00;6.30;;;;;;;-39.37;86.42;93625.50;4209955;28;20452;-67
2023/03/05 04:21:11;;;;;;;24.47;6.50;;;;;;;-39.40;85.82;93622.28;4221744;28;20653;-67
2023/03/05 04:23:38;;;;;;;20.30;6.30;;;;;;;-39.31;85.42;93617.22;4204147;28;20236;-68
2023/03/05 04:26:05;;;;;;;19.77;5.87;;;;;;;-39.34;85.18;93613.19;4214489;28;20352;-67
2023/03/05 06:38:20;;;;;;;20.27;4.30;;;;;;;-37.77;75.92;93523.69;4510089;28;20291;-67
2023/03/05 06:40:47;;;;;;;17.77;4.47;;;;;;;-37.68;75.16;93526.75;4243215;28;20246;-67
2023/03/05 06:43:13;;;;;;;13.13;4.23;;;;;;;-37.72;74.97;93527.66;4235260;28;21627;-63
2023/03/05 06:45:41;;;;;;;15.60;4.80;;;;;;;-37.69;74.95;93531.69;4229206;28;21353;-65
2023/03/05 06:48:07;;;;;;;13.67;4.93;;;;;;;-37.75;74.99;93513.00;4253899;28;20376;-66
2023/03/05 06:50:35;;;;;;;14.13;4.27;;;;;;;-37.64;74.51;93513.56;4255759;28;20974;-66
2023/03/05 06:53:01;;;;;;;14.17;4.07;;;;;;;-37.52;73.85;93504.31;4264960;28;20293;-65
2023/03/05 06:55:28;;;;;;;16.40;4.00;;;;;;;-37.39;73.46;93503.16;4250099;28;24007;-66
2023/03/05 06:57:55;;;;;;;14.83;4.13;;;;;;;-37.31;73.58;93502.97;4232281;28;20261;-66
2023/03/05 07:00:23;;;;;;;15.47;3.90;;;;;;;-37.16;73.14;93502.63;4240424;28;20245;-68
2023/03/05 07:02:49;;;;;;;14.57;4.20;;;;;;;-37.19;73.27;93491.22;4258164;28;20238;-67
2023/03/05 07:05:16;;;;;;;18.00;5.00;;;;;;;-37.00;72.96;93491.56;4233757;28;20245;-66
2023/03/05 07:07:43;;;;;;;14.63;4.93;;;;;;;-36.69;71.98;93489.97;4243778;28;20758;-67
2023/03/05 07:10:10;;;;;;;21.87;5.17;;;;;;;-36.56;70.52;93488.75;4242655;28;20283;-67
2023/03/05 07:12:37;;;;;;;15.90;4.77;;;;;;;-36.79;70.62;93504.16;4249306;28;20238;-68
2023/03/05 07:15:04;;;;;;;9.63;4.00;;;;;;;-36.94;71.68;93507.78;4245683;28;20246;-64
2023/03/05 07:17:31;;;;;;;12.93;4.47;;;;;;;-36.80;71.55;93518.06;4238097;28;20240;-68
2023/03/05 07:19:57;;;;;;;13.50;4.83;;;;;;;-36.85;71.38;93512.47;4254721;28;20239;-63
2023/03/05 07:22:24;;;;;;;14.30;4.70;;;;;;;-36.81;71.75;93508.28;4253921;28;20327;-69
2023/03/05 07:24:50;;;;;;;12.03;4.90;;;;;;;-36.77;71.65;93504.88;4218917;28;26721;-70
2023/03/05 07:27:17;;;;;;;15.53;5.10;;;;;;;-36.79;72.50;93502.50;4235881;28;20750;-65
2023/03/05 07:29:44;;;;;;;15.97;4.50;;;;;;;-36.72;72.54;93510.53;4247791;28;20264;-65
2023/03/05 07:32:10;;;;;;;20.33;5.03;;;;;;;-36.61;71.85;93500.38;4279469;28;20230;-66
2023/03/05 07:34:38;;;;;;;17.60;4.50;;;;;;;-36.55;71.58;93507.59;4245926;28;20242;-67
2023/03/05 07:37:04;;;;;;;13.67;4.67;;;;;;;-36.67;71.83;93505.50;4247926;28;21412;-66
2023/03/05 07:39:31;;;;;;;15.40;4.77;;;;;;;-36.59;71.97;93498.69;4249479;28;21412;-66
2023/03/05 07:41:58;;;;;;;15.53;4.63;;;;;;;-36.52;71.41;93502.59;4223877;28;21234;-70
2023/03/05 07:44:25;;;;;;;15.43;5.10;;;;;;;-36.37;71.38;93503.84;4250082;28;21494;-69
2023/03/05 07:46:52;;;;;;;14.67;4.50;;;;;;;-36.34;70.74;93509.47;4250141;28;20395;-67
2023/03/05 07:49:18;;;;;;;19.30;5.47;;;;;;;-36.32;71.13;93510.25;4248387;28;21302;-68
2023/03/05 07:51:45;;;;;;;12.67;4.50;;;;;;;-36.33;71.44;93508.63;4264663;28;20310;-68
2023/03/05 07:54:12;;;;;;;14.77;4.87;;;;;;;-36.19;71.67;93500.06;4239061;28;20621;-65
2023/03/05 07:56:39;;;;;;;17.97;5.23;;;;;;;-36.38;72.36;93507.94;4243138;28;20222;-63
2023/03/05 07:59:10;;;;;;;17.23;4.80;;;;;;;-36.42;73.35;93506.44;4230683;28;21900;-64
2023/03/05 08:01:37;;;;;;;17.43;5.80;;;;;;;-36.34;73.55;93502.09;4245058;28;22630;-65
2023/03/05 08:04:05;;;;;;;20.43;5.17;;;;;;;-36.24;74.32;93499.38;4255845;28;20699;-68
2023/03/05 08:06:32;;;;;;;15.67;5.77;;;;;;;-36.30;73.73;93497.09;4247800;28;20245;-63
2023/03/05 08:08:59;;;;;;;16.30;5.20;;;;;;;-36.28;73.67;93503.56;4246947;28;20342;-63
2023/03/05 08:11:27;;;;;;;14.47;5.23;;;;;;;-36.34;74.00;93498.84;4236490;28;20332;-65
2023/03/05 08:13:55;;;;;;;14.90;5.93;;;;;;;-36.31;74.72;93503.66;4229191;28;20239;-67
2023/03/05 08:16:24;;;;;;;12.67;5.07;;;;;;;-36.24;74.22;93499.38;4236704;28;20310;-63
2023/03/05 08:18:55;;;;;;;17.50;5.27;;;;;;;-36.35;74.27;93488.19;4250646;28;25347;-64
2023/03/05 08:21:25;;;;;;;16.73;6.23;;;;;;;-36.25;74.15;93497.78;4240873;28;21803;-67
2023/03/05 08:23:52;;;;;;;16.00;6.03;;;;;;;-36.31;73.95;93496.28;4244258;28;21399;-64
2023/03/05 08:26:21;;;;;;;16.70;5.93;;;;;;;-36.26;73.94;93501.88;4223943;28;25482;-68
2023/03/05 08:28:48;;;;;;;18.57;5.80;;;;;;;-36.26;73.83;93492.03;4241863;28;20762;-66
2023/03/05 08:31:16;;;;;;;18.23;6.27;;;;;;;-36.16;74.15;93495.88;4253426;28;23614;-65
2023/03/05 08:33:43;;;;;;;21.33;6.17;;;;;;;-36.22;73.71;93496.03;4229197;28;20324;-62
2023/03/05 08:36:10;;;;;;;16.03;5.73;;;;;;;-36.18;73.72;93499.22;4233619;28;20290;-67
2023/03/05 08:38:36;;;;;;;16.27;6.20;;;;;;;-36.19;74.10;93492.69;4250235;28;20303;-65
2023/03/05 08:41:04;;;;;;;15.00;5.53;;;;;;;-36.19;73.40;93493.47;4252876;28;21240;-64
2023/03/05 08:43:30;;;;;;;18.10;6.37;;;;;;;-36.08;73.56;93494.84;4240691;28;21779;-64
2023/03/05 08:45:59;;;;;;;15.47;6.00;;;;;;;-36.03;73.46;93498.75;4264546;28;20226;-64
2023/03/05 08:48:25;;;;;;;20.40;6.67;;;;;;;-36.00;73.88;93500.31;4245190;28;23287;-65
2023/03/05 08:50:53;;;;;;;18.27;6.27;;;;;;;-35.94;73.67;93498.50;4253886;28;21342;-64
2023/03/05 08:53:19;;;;;;;19.73;6.23;;;;;;;-35.89;73.07;93490.97;4236814;28;20234;-63
2023/03/05 08:55:56;;;;;;;25.50;7.97;;;;;;;-35.88;72.62;93495.06;4249466;28;21390;-64
2023/03/05 08:58:23;;;;;;;20.80;7.03;;;;;;;-35.84;73.39;93493.31;4232660;28;20427;-65
2023/03/05 09:00:50;;;;;;;22.87;8.27;;;;;;;-35.65;73.03;93494.38;4235939;28;20240;-64
2023/03/05 09:03:16;;;;;;;18.13;7.43;;;;;;;-35.86;72.24;93497.47;4239690;28;20237;-65
2023/03/05 09:05:43;;;;;;;27.27;8.57;;;;;;;-35.97;72.44;93495.34;4248505;28;21251;-66
2023/03/05 09:08:10;;;;;;;25.57;7.57;;;;;;;-35.92;72.86;93496.00;4241004;28;20238;-66
2023/03/05 09:10:37;;;;;;;18.77;7.43;;;;;;;-35.90;73.33;93492.66;4235057;28;21891;-66
2023/03/05 09:13:03;;;;;;;20.30;7.87;;;;;;;-35.84;72.46;93488.38;4231593;28;21705;-64
2023/03/05 09:15:30;;;;;;;22.80;7.30;;;;;;;-35.78;72.59;93490.69;4232513;28;20272;-64
2023/03/05 09:17:58;;;;;;;23.00;8.70;;;;;;;-35.83;72.49;93490.81;4226699;28;22368;-66
2023/03/05 09:20:25;;;;;;;22.50;8.97;;;;;;;-35.83;72.46;93485.91;4235309;28;23911;-65
2023/03/05 09:22:51;;;;;;;23.00;8.67;;;;;;;-35.86;72.92;93490.09;4219122;28;20242;-62
2023/03/05 09:25:18;;;;;;;20.10;7.63;;;;;;;-35.79;73.10;93496.44;4244555;28;22308;-65
2023/03/05 09:27:44;;;;;;;21.27;7.50;;;;;;;-35.80;73.08;93489.91;4240968;28;20253;-65
2023/03/05 09:30:12;;;;;;;23.03;8.33;;;;;;;-35.96;73.65;93485.44;4248320;28;20312;-65
2023/03/05 09:32:39;;;;;;;27.27;7.97;;;;;;;-35.73;74.37;93482.31;4218627;28;20241;-66
2023/03/05 09:35:06;;;;;;;24.23;8.20;;;;;;;-35.70;74.03;93492.06;4245881;28;20546;-63
2023/03/05 09:37:33;;;;;;;25.97;8.07;;;;;;;-35.65;74.06;93494.38;4225983;28;23056;-65
2023/03/05 09:40:00;;;;;;;20.17;8.07;;;;;;;-35.71;74.32;93497.03;4245077;28;23104;-63
2023/03/05 09:42:49;;;;;;;22.67;7.80;;;;;;;-35.76;74.39;93484.06;4270686;28;20235;-62
2023/03/05 09:45:24;;;;;;;24.90;9.10;;;;;;;-35.77;74.55;93490.63;4250177;28;21253;-63
2023/03/05 09:48:00;;;;;;;20.40;8.60;;;;;;;-35.59;74.16;93491.72;4236127;28;20312;-65
2023/03/05 09:50:37;;;;;;;25.80;8.87;;;;;;;-35.54;73.95;93496.50;4240436;28;20256;-64
2023/03/05 09:53:07;;;;;;;27.30;9.27;;;;;;;-35.60;73.44;93494.25;4226460;28;20524;-64
2023/03/05 09:55:39;;;;;;;22.90;8.37;;;;;;;-35.68;74.06;93485.44;4232171;28;21866;-63
2023/03/05 09:58:12;;;;;;;25.77;10.23;;;;;;;-35.75;74.28;93484.00;4232147;28;22736;-66
2023/03/05 10:00:45;;;;;;;21.23;8.77;;;;;;;-35.70;74.87;93483.88;4248638;28;22940;-67
2023/03/05 10:03:17;;;;;;;21.23;8.40;;;;;;;-35.57;74.50;93472.78;4234767;28;25614;-63
2023/03/05 10:05:44;;;;;;;24.23;9.63;;;;;;;-35.71;74.90;93479.81;4276758;28;21808;-64
2023/03/05 10:08:11;;;;;;;28.00;10.43;;;;;;;-35.78;75.17;93475.91;4253532;28;21090;-65
2023/03/05 10:10:43;;;;;;;32.67;10.07;;;;;;;-35.83;75.92;93476.03;4226558;28;20230;-66
2023/03/05 10:13:23;;;;;;;32.57;10.83;;;;;;;-35.71;76.07;93474.88;4227973;28;20747;-66
2023/03/05 10:16:28;;;;;;;21.53;9.30;;;;;;;-35.73;75.65;93466.72;4238243;28;23548;-66
2023/03/05 10:19:06;;;;;;;26.50;9.70;;;;;;;-35.73;75.22;93472.47;4255367;28;20292;-62
2023/03/05 10:21:44;;;;;;;22.57;8.43;;;;;;;-35.69;75.17;93473.19;4287603;28;21573;-64
2023/03/05 10:24:37;;;;;;;21.33;8.87;;;;;;;-35.90;76.45;93460.66;4236981;28;20238;-63
2023/03/05 10:27:07;;;;;;;23.20;8.47;;;;;;;-35.81;76.26;93462.03;4240623;28;20276;-65
2023/03/05 10:29:39;;;;;;;27.50;9.50;;;;;;;-35.67;75.88;93466.53;4232361;28;20234;-68
2023/03/05 10:32:27;;;;;;;26.67;9.50;;;;;;;-35.78;76.60;93458.69;4237723;28;20323;-66
2023/03/05 10:35:17;;;;;;;25.53;9.20;;;;;;;-35.85;77.09;93452.34;4255114;28;20234;-70
2023/03/05 10:37:49;;;;;;;26.53;10.20;;;;;;;-35.77;78.08;93460.28;4234880;28;20412;-69
2023/03/05 10:40:22;;;;;;;24.97;9.63;;;;;;;-35.77;77.66;93457.81;4255086;28;23622;-68
2023/03/05 10:42:55;;;;;;;33.93;10.07;;;;;;;-35.83;77.59;93450.59;4230612;28;20229;-67
2023/03/05 10:45:27;;;;;;;27.37;9.40;;;;;;;-35.69;77.74;93453.50;4234179;28;20851;-69
2023/03/05 10:48:04;;;;;;;30.53;9.97;;;;;;;-35.59;77.18;93449.09;4247004;28;20393;-68
2023/03/05 10:50:35;;;;;;;24.53;8.30;;;;;;;-35.56;76.77;93447.28;4235746;28;20240;-66
2023/03/05 10:53:19;;;;;;;22.87;7.03;;;;;;;-35.52;74.85;93445.53;4237150;28;20307;-67
2023/03/05 10:55:45;;;;;;;18.63;6.27;;;;;;;-35.61;74.15;93450.78;4251024;28;20234;-67
2023/03/05 10:58:15;;;;;;;19.87;6.67;;;;;;;-35.85;74.63;93440.03;4255386;28;20421;-67
2023/03/05 11:01:05;;;;;;;15.57;5.63;;;;;;;-35.79;74.12;93435.69;4211294;28;20238;-67
2023/03/05 11:04:01;;;;;;;16.10;5.00;;;;;;;-35.89;74.76;93432.72;4258551;28;20296;-68
2023/03/05 11:06:31;;;;;;;17.87;4.90;;;;;;;-35.86;75.70;93431.00;4237552;28;21763;-69
2023/03/05 11:09:16;;;;;;;10.73;4.40;;;;;;;-35.69;75.40;93423.94;4239536;28;21652;-68
2023/03/05 11:11:43;;;;;;;13.37;4.90;;;;;;;-35.96;76.35;93423.91;4248715;28;20238;-66
2023/03/05 11:14:30;;;;;;;15.90;4.77;;;;;;;-35.91;77.84;93419.63;4228797;28;20678;-65
2023/03/05 11:16:56;;;;;;;16.77;4.73;;;;;;;-35.79;78.60;93427.50;4236472;28;20950;-68
2023/03/05 11:19:31;;;;;;;15.60;5.63;;;;;;;-36.16;82.59;93413.84;4257757;28;20696;-66
2023/03/05 11:22:19;;;;;;;15.93;5.03;;;;;;;-36.13;85.21;93412.13;4238193;28;21767;-63
2023/03/05 11:25:09;;;;;;;28.23;7.37;;;;;;;-36.25;88.57;93404.31;4237003;28;20400;-66
2023/03/05 11:27:48;;;;;;;20.33;7.20;;;;;;;-36.29;90.19;93405.25;4270138;28;21007;-68
2023/03/05 11:30:28;;;;;;;16.93;6.50;;;;;;;-36.24;91.28;93403.44;4216061;28;20860;-68
2023/03/05 11:33:10;;;;;;;17.23;7.23;;;;;;;-36.25;91.20;93399.41;4227227;28;20259;-70
2023/03/05 11:35:39;;;;;;;18.33;7.77;;;;;;;-36.34;91.51;93391.41;4247991;28;21377;-65
2023/03/05 11:38:16;;;;;;;20.87;7.53;;;;;;;-36.27;91.93;93396.97;4242953;28;20230;-70
2023/03/05 11:40:43;;;;;;;19.37;7.30;;;;;;;-36.40;92.05;93391.59;4256843;28;20917;-66
2023/03/05 11:43:19;;;;;;;21.07;7.73;;;;;;;-36.26;93.08;93388.72;4250821;28;20265;-65
2023/03/05 11:45:50;;;;;;;21.20;7.97;;;;;;;-36.26;92.79;93383.81;4244311;28;20420;-69
2023/03/05 11:48:49;;;;;;;25.43;8.83;;;;;;;-36.22;92.85;93382.06;4244798;28;20249;-66
2023/03/05 11:51:23;;;;;;;25.20;8.53;;;;;;;-36.16;92.85;93380.25;4218043;28;20978;-67
2023/03/05 11:53:55;;;;;;;23.23;8.13;;;;;;;-36.23;93.91;93378.81;4235929;28;20290;-64
2023/03/05 11:56:29;;;;;;;22.60;8.83;;;;;;;-36.29;94.66;93370.81;4239871;28;20318;-69
2023/03/05 11:59:14;;;;;;;22.47;8.80;;;;;;;-36.40;96.36;93366.19;4227817;28;20261;-67
2023/03/05 12:01:51;;;;;;;26.83;8.20;;;;;;;-36.44;96.54;93367.94;4256479;28;20337;-68
2023/03/05 12:04:18;;;;;;;19.07;7.70;;;;;;;-36.46;97.16;93368.84;4218033;28;20875;-70
2023/03/05 12:06:46;;;;;;;20.77;8.03;;;;;;;-36.41;97.31;93367.84;4232455;28;21800;-67
2023/03/05 12:09:15;;;;;;;17.30;6.43;;;;;;;-36.34;96.24;93358.66;4249457;28;20256;-67
2023/03/05 12:11:42;;;;;;;14.13;5.13;;;;;;;-36.59;95.88;93361.03;4239214;28;20239;-71
2023/03/05 12:14:31;;;;;;;11.40;4.77;;;;;;;-36.74;95.23;93359.81;4238798;28;20347;-70
2023/03/05 12:17:13;;;;;;;13.33;3.97;;;;;;;-36.76;96.50;93350.03;4237002;28;20249;-67
2023/03/05 12:19:45;;;;;;;13.17;4.40;;;;;;;-36.89;97.82;93353.66;4239123;28;20235;-72
2023/03/05 12:22:23;;;;;;;15.20;4.63;;;;;;;-36.87;98.38;93342.13;4249666;28;23604;-68
2023/03/05 12:24:50;;;;;;;14.57;5.57;;;;;;;-36.94;99.36;93350.53;4228832;28;20978;-69
2023/03/05 12:27:46;;;;;;;12.50;4.40;;;;;;;-36.89;100.00;93343.03;4253749;28;20244;-67
2023/03/05 12:30:42;;;;;;;11.53;4.80;;;;;;;-36.85;100.00;93347.81;4222924;28;20265;-71
2023/03/05 12:33:36;;;;;;;13.67;5.40;;;;;;;-37.04;100.00;93344.25;4248851;28;20658;-68
2023/03/05 12:36:31;;;;;;;17.93;5.17;;;;;;;-37.07;100.00;93339.47;4238385;28;21438;-68
2023/03/05 12:38:58;;;;;;;15.97;5.13;;;;;;;-37.00;100.00;93343.34;4231563;28;20321;-70
2023/03/05 12:41:28;;;;;;;16.97;5.23;;;;;;;-37.00;100.00;93340.88;4250206;28;20234;-68
2023/03/05 12:44:03;;;;;;;16.80;4.80;;;;;;;-36.97;100.00;93330.97;4239979;28;20385;-70
2023/03/05 12:46:38;;;;;;;9.57;4.10;;;;;;;-36.93;100.00;93334.13;4249628;28;23374;-69
2023/03/05 12:49:16;;;;;;;14.47;5.33;;;;;;;-36.89;100.00;93334.00;4244206;28;20328;-74
2023/03/05 12:51:45;;;;;;;16.70;4.57;;;;;;;-36.84;100.00;93324.03;4238411;28;20421;-72
2023/03/05 12:54:30;;;;;;;18.03;4.97;;;;;;;-36.97;100.00;93330.97;4231371;28;20383;-76
2023/03/05 12:57:18;;;;;;;15.07;5.07;;;;;;;-36.94;100.00;93321.03;4250027;28;20398;-73
2023/03/05 13:00:07;;;;;;;12.00;4.43;;;;;;;-36.85;100.00;93317.53;4237303;28;20287;-73
2023/03/05 13:02:40;;;;;;;13.37;4.30;;;;;;;-36.92;100.00;93311.19;4264070;28;20222;-69
2023/03/05 13:05:35;;;;;;;10.70;4.23;;;;;;;-36.94;100.00;93313.66;4239083;28;20241;-68
2023/03/05 13:08:34;;;;;;;17.63;4.10;;;;;;;-36.86;100.00;93311.03;4239736;28;23070;-68
2023/03/05 13:11:03;;;;;;;11.50;4.60;;;;;;;-36.76;100.00;93309.91;4232224;28;20842;-69
2023/03/05 13:13:42;;;;;;;9.80;4.20;;;;;;;-36.72;100.00;93315.50;4250625;28;20792;-68
2023/03/05 13:16:21;;;;;;;9.47;3.63;;;;;;;-36.72;99.91;93320.44;4219970;28;22357;-70
2023/03/05 13:18:48;;;;;;;11.30;3.50;;;;;;;-36.72;99.58;93305.69;4234871;28;25563;-71
2023/03/05 13:21:17;;;;;;;13.00;4.40;;;;;;;-36.74;99.21;93307.41;4253272;28;20909;-64
2023/03/05 13:23:48;;;;;;;14.63;5.33;;;;;;;-36.84;98.65;93314.22;4236389;28;21925;-64
2023/03/05 13:26:19;;;;;;;19.73;5.10;;;;;;;-36.72;99.08;93308.13;4243384;28;21131;-61
2023/03/05 13:29:04;;;;;;;11.47;4.33;;;;;;;-36.81;98.73;93311.69;4231862;28;23674;-69
2023/03/05 13:31:33;;;;;;;10.87;3.27;;;;;;;-36.91;99.19;93311.16;4234655;28;20253;-66
2023/03/05 13:34:19;;;;;;;12.93;3.47;;;;;;;-36.79;99.63;93305.88;4228861;28;21269;-67
2023/03/05 13:36:49;;;;;;;17.37;4.37;;;;;;;-36.67;99.05;93306.38;4245681;28;20838;-67
2023/03/05 13:39:26;;;;;;;22.03;6.10;;;;;;;-36.85;99.48;93301.13;4245352;28;20239;-67
2023/03/05 13:42:16;;;;;;;33.57;8.90;;;;;;;-36.91;99.94;93305.41;4243628;28;20229;-70